createdAt,value
2022-12-25T00:03:54.300Z,13.6
2022-12-25T00:14:01.564Z,13.5
2022-12-25T00:24:09.384Z,13.5
2022-12-25T00:34:17.212Z,13.2
2022-12-25T00:44:25.209Z,13.1
2022-12-25T00:54:33.087Z,13.1
2022-12-25T01:04:42.991Z,13
2022-12-25T01:14:50.916Z,12.8
2022-12-25T01:24:58.739Z,12.9
2022-12-25T01:35:06.546Z,12.6
2022-12-25T01:45:14.904Z,12.5
2022-12-25T01:55:22.752Z,12.4
2022-12-25T02:05:30.731Z,12.5
2022-12-25T02:15:38.638Z,12.7
2022-12-25T02:25:46.469Z,12.4
2022-12-25T02:45:49.126Z,12.3
2022-12-25T02:55:56.952Z,12.6
2022-12-25T03:06:04.915Z,12.7
2022-12-25T03:16:12.832Z,12.8
2022-12-25T03:26:20.633Z,13
2022-12-25T03:36:28.514Z,12.8
2022-12-25T03:46:36.506Z,12.5
2022-12-25T03:56:44.196Z,12.1
2022-12-25T04:06:51.971Z,11.7
2022-12-25T04:16:59.774Z,11.8
2022-12-25T04:27:07.635Z,11.7
2022-12-25T04:37:15.549Z,11.8
2022-12-25T04:47:23.309Z,11.8
2022-12-25T04:57:31.161Z,11.6
2022-12-25T05:07:39.097Z,12.1
2022-12-25T05:17:46.920Z,12.4
2022-12-25T05:27:54.673Z,12
2022-12-25T05:38:02.755Z,11.4
2022-12-25T05:48:10.688Z,11.8
2022-12-25T05:58:18.562Z,12
2022-12-25T06:08:26.452Z,12
2022-12-25T06:18:34.280Z,11.7
2022-12-25T06:28:42.110Z,11.7
2022-12-25T06:38:49.956Z,11.5
2022-12-25T06:48:57.774Z,11.7
2022-12-25T06:59:05.636Z,11.6
2022-12-25T07:09:13.486Z,11.7
2022-12-25T07:19:21.214Z,11.6
2022-12-25T07:29:29.131Z,11.7
2022-12-25T07:39:37.029Z,11.5
2022-12-25T07:49:44.794Z,11.5
2022-12-25T07:59:52.679Z,12.1
2022-12-25T08:10:00.687Z,12.9
2022-12-25T08:20:08.772Z,13.9
2022-12-25T08:30:18.591Z,14.5
2022-12-25T08:40:26.754Z,14.9
2022-12-25T08:50:34.820Z,15.1
2022-12-25T09:00:44.032Z,15.1
2022-12-25T09:10:52.659Z,16.3
2022-12-25T09:20:55.590Z,16.8
2022-12-25T09:30:58.110Z,16.5
2022-12-25T09:40:58.301Z,16.7
2022-12-25T09:51:04.193Z,17
2022-12-25T10:01:12.953Z,17.3
2022-12-25T10:11:22.192Z,17.1
2022-12-25T10:21:30.446Z,17.8
2022-12-25T10:31:31.236Z,18
2022-12-25T10:41:39.560Z,18.3
2022-12-25T10:51:48.201Z,18.8
2022-12-25T11:01:53.640Z,18.8
2022-12-25T11:11:56.722Z,19.2
2022-12-25T11:22:08.388Z,19.5
2022-12-25T11:32:14.683Z,19.8
2022-12-25T11:42:22.622Z,20.1
2022-12-25T11:52:24.297Z,20.4
2022-12-25T12:02:24.752Z,20.6
2022-12-25T12:12:32.615Z,20.6
2022-12-25T12:22:40.064Z,20.2
2022-12-25T12:32:48.134Z,20.5
2022-12-25T12:42:49.830Z,20.5
2022-12-25T12:52:58.063Z,20.6
2022-12-25T13:03:06.253Z,20.6
2022-12-25T13:13:14.494Z,20.4
2022-12-25T13:23:22.691Z,20.7
2022-12-25T13:33:31.564Z,20.6
2022-12-25T13:43:39.571Z,20.8
2022-12-25T13:53:47.830Z,21.2
2022-12-25T14:03:57.356Z,20.5
2022-12-25T14:14:05.778Z,20.9
2022-12-25T14:24:15.016Z,20.8
2022-12-25T14:34:14.425Z,20.6
2022-12-25T14:44:22.464Z,20.2
2022-12-25T14:54:23.523Z,20.2
2022-12-25T15:04:33.031Z,19.9
2022-12-25T15:14:41.113Z,20
2022-12-25T15:24:49.332Z,19.6
2022-12-25T15:34:58.975Z,19.4
2022-12-25T15:45:08.073Z,19.1
2022-12-25T15:55:16.250Z,19
2022-12-25T16:05:25.498Z,18.8
2022-12-25T16:15:33.705Z,18.8
2022-12-25T16:25:43.184Z,18.6
2022-12-25T16:35:51.315Z,18.5
2022-12-25T16:45:59.315Z,18.4
2022-12-25T16:56:07.330Z,18.4
2022-12-25T17:16:18.404Z,17.6
2022-12-25T17:26:20.852Z,17.6
2022-12-25T17:36:30.010Z,17.4
2022-12-25T17:46:39.176Z,17.1
2022-12-25T17:56:47.365Z,16.9
2022-12-25T18:06:48.461Z,16.7
2022-12-25T18:16:57.960Z,16.7
2022-12-25T18:27:06.409Z,16.6
2022-12-25T18:37:15.325Z,16.5
2022-12-25T18:47:24.114Z,16.5
2022-12-25T18:57:24.141Z,16.5
2022-12-25T19:07:33.401Z,16.5
2022-12-25T19:17:34.416Z,16.3
2022-12-25T19:27:34.562Z,16
2022-12-25T19:37:44.041Z,16.6
2022-12-25T19:47:52.880Z,16.4
2022-12-25T19:57:57.326Z,15.8
2022-12-25T20:08:00.842Z,15.4
2022-12-25T20:18:28.808Z,15
2022-12-25T20:28:17.836Z,15.2
2022-12-25T20:38:16.446Z,14.6
2022-12-25T20:48:25.188Z,14
2022-12-25T20:58:33.421Z,14.2
2022-12-25T21:08:49.268Z,14.6
2022-12-25T21:18:48.630Z,14.5
2022-12-25T21:28:49.848Z,14.5
2022-12-25T21:38:59.004Z,14.4
2022-12-25T21:49:02.949Z,14.5
2022-12-25T21:59:15.671Z,14.3
2022-12-25T22:09:13.586Z,14.3
2022-12-25T22:19:18.454Z,13.9
2022-12-25T22:29:16.963Z,13.7
2022-12-25T22:39:24.861Z,13.4
2022-12-25T22:49:25.059Z,13
2022-12-25T22:59:33.132Z,13
2022-12-25T23:09:42.415Z,12.8
2022-12-25T23:19:50.337Z,12.9
2022-12-25T23:29:58.274Z,13
2022-12-25T23:40:06.216Z,12.9
2022-12-25T23:50:14.119Z,12.7
